sensor_id;sensor_type;location;lat;lon;timestamp;pressure;altitude;pressure_sealevel;temperature;humidity
24160;BME280;62385;41.594;23.808;2023-12-28T00:00:17;96695.88;;;1.44;85.91
24160;BME280;62385;41.594;23.808;2023-12-28T00:02:43;96669.69;;;1.13;85.69
24160;BME280;62385;41.594;23.808;2023-12-28T00:05:08;96690.13;;;1.22;85.41
24160;BME280;62385;41.594;23.808;2023-12-28T00:07:34;96708.09;;;1.12;85.83
24160;BME280;62385;41.594;23.808;2023-12-28T00:10:02;96684.97;;;1.05;86.54
24160;BME280;62385;41.594;23.808;2023-12-28T00:12:27;96710.13;;;1.38;86.73
24160;BME280;62385;41.594;23.808;2023-12-28T00:14:53;96697.28;;;1.34;86.46
24160;BME280;62385;41.594;23.808;2023-12-28T00:17:19;96711.97;;;1.21;86.99
24160;BME280;62385;41.594;23.808;2023-12-28T00:19:44;96710.31;;;1.20;86.34
24160;BME280;62385;41.594;23.808;2023-12-28T00:22:10;96714.25;;;1.11;86.39
24160;BME280;62385;41.594;23.808;2023-12-28T00:24:35;96712.06;;;1.35;85.88
24160;BME280;62385;41.594;23.808;2023-12-28T00:27:01;96690.19;;;1.05;86.11
24160;BME280;62385;41.594;23.808;2023-12-28T00:29:26;96709.22;;;1.24;86.56
24160;BME280;62385;41.594;23.808;2023-12-28T00:31:54;96705.81;;;1.22;86.45
24160;BME280;62385;41.594;23.808;2023-12-28T00:34:19;96736.78;;;1.45;86.37
24160;BME280;62385;41.594;23.808;2023-12-28T00:36:45;96732.81;;;1.38;86.17
24160;BME280;62385;41.594;23.808;2023-12-28T00:39:10;96742.38;;;1.23;85.81
24160;BME280;62385;41.594;23.808;2023-12-28T00:41:36;96716.59;;;1.00;85.87
24160;BME280;62385;41.594;23.808;2023-12-28T00:44:01;96751.78;;;0.95;86.12
24160;BME280;62385;41.594;23.808;2023-12-28T00:46:27;96740.25;;;0.66;86.55
24160;BME280;62385;41.594;23.808;2023-12-28T00:48:53;96753.81;;;0.72;86.25
24160;BME280;62385;41.594;23.808;2023-12-28T00:51:20;96744.41;;;0.85;84.93
24160;BME280;62385;41.594;23.808;2023-12-28T00:53:47;96735.69;;;0.69;84.42
24160;BME280;62385;41.594;23.808;2023-12-28T00:56:13;96753.59;;;0.60;85.39
24160;BME280;62385;41.594;23.808;2023-12-28T00:58:42;96753.41;;;0.80;86.01
24160;BME280;62385;41.594;23.808;2023-12-28T01:01:09;96750.38;;;0.87;85.52
24160;BME280;62385;41.594;23.808;2023-12-28T01:03:35;96762.09;;;0.80;85.67
24160;BME280;62385;41.594;23.808;2023-12-28T01:06:01;96741.91;;;0.67;86.84
24160;BME280;62385;41.594;23.808;2023-12-28T01:08:27;96755.50;;;0.73;87.06
24160;BME280;62385;41.594;23.808;2023-12-28T01:10:52;96759.19;;;0.86;85.69
24160;BME280;62385;41.594;23.808;2023-12-28T01:13:18;96755.63;;;0.87;86.16
24160;BME280;62385;41.594;23.808;2023-12-28T01:15:44;96762.94;;;0.48;86.46
24160;BME280;62385;41.594;23.808;2023-12-28T01:18:10;96759.38;;;0.66;87.57
24160;BME280;62385;41.594;23.808;2023-12-28T01:20:36;96769.03;;;0.81;86.39
24160;BME280;62385;41.594;23.808;2023-12-28T01:23:03;96770.81;;;0.97;86.84
24160;BME280;62385;41.594;23.808;2023-12-28T01:25:29;96775.66;;;0.71;86.43
24160;BME280;62385;41.594;23.808;2023-12-28T01:27:54;96722.38;;;0.41;85.52
24160;BME280;62385;41.594;23.808;2023-12-28T01:30:20;96725.50;;;0.47;86.34
24160;BME280;62385;41.594;23.808;2023-12-28T01:32:45;96767.78;;;0.88;85.94
24160;BME280;62385;41.594;23.808;2023-12-28T01:35:11;96748.28;;;0.78;84.81
24160;BME280;62385;41.594;23.808;2023-12-28T01:37:37;96756.00;;;0.64;85.51
24160;BME280;62385;41.594;23.808;2023-12-28T01:40:02;96724.81;;;0.44;85.23
24160;BME280;62385;41.594;23.808;2023-12-28T01:42:29;96761.44;;;0.60;85.76
24160;BME280;62385;41.594;23.808;2023-12-28T01:44:57;96754.69;;;0.56;86.99
24160;BME280;62385;41.594;23.808;2023-12-28T01:47:24;96750.81;;;0.63;86.36
24160;BME280;62385;41.594;23.808;2023-12-28T01:49:51;96754.25;;;0.80;85.18
24160;BME280;62385;41.594;23.808;2023-12-28T01:52:17;96759.19;;;0.36;86.29
24160;BME280;62385;41.594;23.808;2023-12-28T01:54:44;96771.00;;;0.26;86.22
24160;BME280;62385;41.594;23.808;2023-12-28T01:57:10;96763.09;;;0.45;86.00
24160;BME280;62385;41.594;23.808;2023-12-28T01:59:36;96760.94;;;0.19;87.04
24160;BME280;62385;41.594;23.808;2023-12-28T02:02:02;96764.84;;;0.44;86.74
24160;BME280;62385;41.594;23.808;2023-12-28T02:04:28;96718.94;;;0.23;85.94
24160;BME280;62385;41.594;23.808;2023-12-28T02:06:59;96756.56;;;0.36;86.53
24160;BME280;62385;41.594;23.808;2023-12-28T02:09:25;96748.06;;;0.33;86.32
24160;BME280;62385;41.594;23.808;2023-12-28T02:11:51;96762.13;;;0.63;86.27
24160;BME280;62385;41.594;23.808;2023-12-28T02:14:17;96757.28;;;0.73;85.77
24160;BME280;62385;41.594;23.808;2023-12-28T02:16:51;96755.69;;;0.70;84.88
24160;BME280;62385;41.594;23.808;2023-12-28T02:20:12;96770.94;;;0.45;84.85
24160;BME280;62385;41.594;23.808;2023-12-28T02:22:32;96737.44;;;0.02;86.01
24160;BME280;62385;41.594;23.808;2023-12-28T02:27:38;96762.03;;;0.32;85.09
24160;BME280;62385;41.594;23.808;2023-12-28T02:30:06;96767.78;;;0.38;85.79
24160;BME280;62385;41.594;23.808;2023-12-28T02:35:07;96767.69;;;0.40;84.32
24160;BME280;62385;41.594;23.808;2023-12-28T02:37:36;96754.72;;;0.04;84.95
24160;BME280;62385;41.594;23.808;2023-12-28T02:40:03;96770.59;;;0.34;84.73
24160;BME280;62385;41.594;23.808;2023-12-28T02:42:28;96769.06;;;0.30;84.65
24160;BME280;62385;41.594;23.808;2023-12-28T02:44:54;96751.66;;;0.13;85.35
24160;BME280;62385;41.594;23.808;2023-12-28T02:47:20;96763.38;;;0.05;85.10
24160;BME280;62385;41.594;23.808;2023-12-28T02:49:45;96763.94;;;0.28;85.06
24160;BME280;62385;41.594;23.808;2023-12-28T02:52:11;96753.72;;;0.07;85.59
24160;BME280;62385;41.594;23.808;2023-12-28T02:54:36;96757.94;;;0.26;85.44
24160;BME280;62385;41.594;23.808;2023-12-28T02:57:02;96717.09;;;-0.09;86.23
24160;BME280;62385;41.594;23.808;2023-12-28T02:59:27;96750.66;;;0.16;85.54
24160;BME280;62385;41.594;23.808;2023-12-28T03:01:53;96740.06;;;0.36;84.60
24160;BME280;62385;41.594;23.808;2023-12-28T03:04:19;96746.88;;;0.21;85.00
24160;BME280;62385;41.594;23.808;2023-12-28T03:06:46;96746.03;;;0.21;85.44
24160;BME280;62385;41.594;23.808;2023-12-28T03:09:11;96755.72;;;0.02;86.09
24160;BME280;62385;41.594;23.808;2023-12-28T03:11:37;96747.88;;;0.02;85.26
24160;BME280;62385;41.594;23.808;2023-12-28T03:14:03;96761.09;;;0.16;84.29
24160;BME280;62385;41.594;23.808;2023-12-28T03:16:29;96756.50;;;0.04;85.21
24160;BME280;62385;41.594;23.808;2023-12-28T03:18:54;96727.75;;;-0.31;84.67
24160;BME280;62385;41.594;23.808;2023-12-28T03:21:20;96749.19;;;-0.07;85.38
24160;BME280;62385;41.594;23.808;2023-12-28T03:23:45;96747.63;;;-0.11;85.77
24160;BME280;62385;41.594;23.808;2023-12-28T03:26:11;96768.06;;;-0.02;85.75
24160;BME280;62385;41.594;23.808;2023-12-28T03:28:37;96749.19;;;-0.07;86.67
24160;BME280;62385;41.594;23.808;2023-12-28T03:31:02;96774.31;;;-0.05;86.28
24160;BME280;62385;41.594;23.808;2023-12-28T03:33:28;96763.13;;;-0.08;85.57
24160;BME280;62385;41.594;23.808;2023-12-28T03:35:54;96734.44;;;-0.08;86.03
24160;BME280;62385;41.594;23.808;2023-12-28T03:38:19;96765.00;;;-0.10;86.66
24160;BME280;62385;41.594;23.808;2023-12-28T03:40:45;96757.41;;;0.03;86.13
24160;BME280;62385;41.594;23.808;2023-12-28T03:43:13;96762.22;;;-0.07;85.34
24160;BME280;62385;41.594;23.808;2023-12-28T03:45:38;96776.13;;;-0.07;86.00
24160;BME280;62385;41.594;23.808;2023-12-28T03:48:04;96719.47;;;-0.22;86.13
24160;BME280;62385;41.594;23.808;2023-12-28T03:50:30;96770.88;;;0.12;85.66
24160;BME280;62385;41.594;23.808;2023-12-28T03:52:55;96769.38;;;-0.11;86.15
24160;BME280;62385;41.594;23.808;2023-12-28T03:55:21;96776.78;;;0.16;85.54
24160;BME280;62385;41.594;23.808;2023-12-28T03:57:46;96774.75;;;0.21;84.67
24160;BME280;62385;41.594;23.808;2023-12-28T04:00:13;96767.00;;;0.19;84.58
24160;BME280;62385;41.594;23.808;2023-12-28T04:02:40;96784.00;;;0.28;85.05
24160;BME280;62385;41.594;23.808;2023-12-28T04:05:05;96765.81;;;-0.27;87.85
24160;BME280;62385;41.594;23.808;2023-12-28T04:07:32;96781.94;;;-0.19;89.38
24160;BME280;62385;41.594;23.808;2023-12-28T04:09:58;96778.28;;;0.03;87.46
24160;BME280;62385;41.594;23.808;2023-12-28T04:12:23;96792.00;;;-0.47;86.49
24160;BME280;62385;41.594;23.808;2023-12-28T04:14:49;96780.94;;;-0.52;86.09
24160;BME280;62385;41.594;23.808;2023-12-28T04:17:15;96782.78;;;-0.73;86.10
24160;BME280;62385;41.594;23.808;2023-12-28T04:19:40;96777.63;;;-0.56;85.11
24160;BME280;62385;41.594;23.808;2023-12-28T04:22:06;96778.38;;;-0.35;86.09
24160;BME280;62385;41.594;23.808;2023-12-28T04:24:31;96776.78;;;-0.37;85.16
24160;BME280;62385;41.594;23.808;2023-12-28T04:26:58;96772.84;;;-0.46;85.90
24160;BME280;62385;41.594;23.808;2023-12-28T04:29:23;96772.63;;;-0.60;85.94
24160;BME280;62385;41.594;23.808;2023-12-28T04:31:49;96756.94;;;-0.59;85.45
24160;BME280;62385;41.594;23.808;2023-12-28T04:34:15;96763.16;;;-0.44;85.44
24160;BME280;62385;41.594;23.808;2023-12-28T04:36:43;96782.84;;;-0.56;86.05
24160;BME280;62385;41.594;23.808;2023-12-28T04:39:10;96780.31;;;-0.57;86.12
24160;BME280;62385;41.594;23.808;2023-12-28T04:41:37;96779.59;;;-0.61;85.18
24160;BME280;62385;41.594;23.808;2023-12-28T04:44:03;96787.94;;;-0.71;85.47
24160;BME280;62385;41.594;23.808;2023-12-28T04:46:28;96779.44;;;-0.58;85.74
24160;BME280;62385;41.594;23.808;2023-12-28T04:48:54;96780.47;;;-0.60;85.03
24160;BME280;62385;41.594;23.808;2023-12-28T04:51:19;96787.69;;;-0.48;85.66
24160;BME280;62385;41.594;23.808;2023-12-28T04:53:45;96767.75;;;-0.49;85.53
24160;BME280;62385;41.594;23.808;2023-12-28T04:56:11;96783.06;;;-0.24;84.45
24160;BME280;62385;41.594;23.808;2023-12-28T04:58:36;96790.22;;;-0.28;84.15
24160;BME280;62385;41.594;23.808;2023-12-28T05:01:02;96789.72;;;-0.36;84.63
24160;BME280;62385;41.594;23.808;2023-12-28T05:03:28;96805.88;;;-0.28;83.99
24160;BME280;62385;41.594;23.808;2023-12-28T05:05:53;96799.03;;;-0.30;83.17
24160;BME280;62385;41.594;23.808;2023-12-28T05:08:19;96801.16;;;-0.38;84.33
24160;BME280;62385;41.594;23.808;2023-12-28T05:10:45;96777.03;;;-0.79;83.97
24160;BME280;62385;41.594;23.808;2023-12-28T05:13:11;96807.94;;;-0.53;84.04
24160;BME280;62385;41.594;23.808;2023-12-28T05:15:37;96807.38;;;-0.60;84.28
24160;BME280;62385;41.594;23.808;2023-12-28T05:18:02;96798.63;;;-0.96;85.31
24160;BME280;62385;41.594;23.808;2023-12-28T05:20:29;96796.03;;;-0.77;84.22
24160;BME280;62385;41.594;23.808;2023-12-28T05:22:54;96806.25;;;-0.73;84.73
24160;BME280;62385;41.594;23.808;2023-12-28T05:25:20;96820.91;;;-0.70;83.67
24160;BME280;62385;41.594;23.808;2023-12-28T05:27:45;96818.28;;;-0.70;84.23
24160;BME280;62385;41.594;23.808;2023-12-28T05:30:11;96817.28;;;-0.86;84.93
24160;BME280;62385;41.594;23.808;2023-12-28T05:32:37;96798.16;;;-0.67;84.81
24160;BME280;62385;41.594;23.808;2023-12-28T05:35:03;96809.13;;;-0.60;84.35
24160;BME280;62385;41.594;23.808;2023-12-28T05:37:29;96788.84;;;-0.72;84.15
24160;BME280;62385;41.594;23.808;2023-12-28T05:39:54;96802.16;;;-0.60;84.90
24160;BME280;62385;41.594;23.808;2023-12-28T05:42:20;96804.84;;;-0.80;85.33
24160;BME280;62385;41.594;23.808;2023-12-28T05:44:46;96801.44;;;-0.82;85.50
24160;BME280;62385;41.594;23.808;2023-12-28T05:47:11;96793.94;;;-0.88;85.48
24160;BME280;62385;41.594;23.808;2023-12-28T05:49:37;96816.69;;;-0.54;85.89
24160;BME280;62385;41.594;23.808;2023-12-28T05:52:03;96802.22;;;-0.99;85.22
24160;BME280;62385;41.594;23.808;2023-12-28T05:54:29;96811.19;;;-0.85;85.27
24160;BME280;62385;41.594;23.808;2023-12-28T05:56:55;96804.25;;;-0.49;84.72
24160;BME280;62385;41.594;23.808;2023-12-28T05:59:20;96804.84;;;-0.61;83.56
24160;BME280;62385;41.594;23.808;2023-12-28T06:01:46;96806.22;;;-0.35;82.10
24160;BME280;62385;41.594;23.808;2023-12-28T06:04:12;96823.75;;;-0.37;82.58
24160;BME280;62385;41.594;23.808;2023-12-28T06:06:38;96811.03;;;-0.45;83.12
24160;BME280;62385;41.594;23.808;2023-12-28T06:09:03;96821.38;;;-0.25;83.07
24160;BME280;62385;41.594;23.808;2023-12-28T06:11:29;96757.28;;;-0.85;82.60
24160;BME280;62385;41.594;23.808;2023-12-28T06:13:55;96827.03;;;-0.34;83.07
24160;BME280;62385;41.594;23.808;2023-12-28T06:16:21;96828.66;;;-0.31;82.67
24160;BME280;62385;41.594;23.808;2023-12-28T06:18:46;96801.81;;;-0.52;82.86
24160;BME280;62385;41.594;23.808;2023-12-28T06:21:12;96828.81;;;-0.34;83.15
24160;BME280;62385;41.594;23.808;2023-12-28T06:23:37;96831.91;;;-0.45;83.66
24160;BME280;62385;41.594;23.808;2023-12-28T06:26:06;96816.44;;;-0.50;83.64
24160;BME280;62385;41.594;23.808;2023-12-28T06:28:32;96830.50;;;-0.52;83.91
24160;BME280;62385;41.594;23.808;2023-12-28T06:30:58;96821.06;;;-0.55;83.50
24160;BME280;62385;41.594;23.808;2023-12-28T06:33:27;96829.41;;;-0.85;84.60
24160;BME280;62385;41.594;23.808;2023-12-28T06:35:53;96818.44;;;-0.55;85.10
24160;BME280;62385;41.594;23.808;2023-12-28T06:38:19;96824.97;;;-0.09;83.30
24160;BME280;62385;41.594;23.808;2023-12-28T06:40:44;96832.31;;;0.00;83.48
24160;BME280;62385;41.594;23.808;2023-12-28T06:43:10;96822.50;;;0.06;83.92
24160;BME280;62385;41.594;23.808;2023-12-28T06:45:35;96820.88;;;-0.33;85.48
24160;BME280;62385;41.594;23.808;2023-12-28T06:48:01;96798.88;;;-0.27;85.37
24160;BME280;62385;41.594;23.808;2023-12-28T06:50:26;96804.47;;;0.01;83.90
24160;BME280;62385;41.594;23.808;2023-12-28T06:52:52;96818.78;;;0.11;84.36
24160;BME280;62385;41.594;23.808;2023-12-28T06:55:17;96829.72;;;0.00;84.54
24160;BME280;62385;41.594;23.808;2023-12-28T06:57:43;96819.66;;;-0.07;84.65
24160;BME280;62385;41.594;23.808;2023-12-28T07:00:09;96827.81;;;0.04;85.37
24160;BME280;62385;41.594;23.808;2023-12-28T07:02:35;96805.03;;;0.08;84.77
24160;BME280;62385;41.594;23.808;2023-12-28T07:05:00;96824.38;;;0.38;85.09
24160;BME280;62385;41.594;23.808;2023-12-28T07:07:26;96827.09;;;0.36;85.23
24160;BME280;62385;41.594;23.808;2023-12-28T07:09:51;96838.63;;;0.50;85.38
24160;BME280;62385;41.594;23.808;2023-12-28T07:12:17;96761.72;;;0.04;85.29
24160;BME280;62385;41.594;23.808;2023-12-28T07:14:45;96836.06;;;0.31;86.11
24160;BME280;62385;41.594;23.808;2023-12-28T07:17:11;96819.94;;;0.23;85.55
24160;BME280;62385;41.594;23.808;2023-12-28T07:19:40;96831.38;;;0.37;85.22
24160;BME280;62385;41.594;23.808;2023-12-28T07:22:06;96830.84;;;0.31;84.93
24160;BME280;62385;41.594;23.808;2023-12-28T07:24:31;96828.06;;;0.34;85.21
24160;BME280;62385;41.594;23.808;2023-12-28T07:26:57;96827.00;;;0.38;84.80
24160;BME280;62385;41.594;23.808;2023-12-28T07:29:22;96838.69;;;0.48;85.30
24160;BME280;62385;41.594;23.808;2023-12-28T07:31:48;96814.38;;;0.46;84.98
24160;BME280;62385;41.594;23.808;2023-12-28T07:34:13;96823.16;;;0.62;84.80
24160;BME280;62385;41.594;23.808;2023-12-28T07:36:39;96836.88;;;0.83;85.09
24160;BME280;62385;41.594;23.808;2023-12-28T07:39:08;96836.13;;;0.98;83.69
24160;BME280;62385;41.594;23.808;2023-12-28T07:41:33;96821.28;;;0.99;84.01
24160;BME280;62385;41.594;23.808;2023-12-28T07:43:59;96835.00;;;1.19;84.03
24160;BME280;62385;41.594;23.808;2023-12-28T07:46:24;96832.41;;;1.35;84.02
24160;BME280;62385;41.594;23.808;2023-12-28T07:48:50;96825.91;;;1.42;84.04
24160;BME280;62385;41.594;23.808;2023-12-28T07:51:15;96836.56;;;1.55;84.13
24160;BME280;62385;41.594;23.808;2023-12-28T07:53:41;96846.59;;;1.62;84.09
24160;BME280;62385;41.594;23.808;2023-12-28T07:56:06;96844.03;;;1.78;84.10
24160;BME280;62385;41.594;23.808;2023-12-28T07:58:32;96849.75;;;1.84;84.01
24160;BME280;62385;41.594;23.808;2023-12-28T08:00:57;96844.69;;;1.97;83.36
24160;BME280;62385;41.594;23.808;2023-12-28T08:03:23;96839.03;;;1.89;84.18
24160;BME280;62385;41.594;23.808;2023-12-28T08:05:48;96813.28;;;1.81;83.39
24160;BME280;62385;41.594;23.808;2023-12-28T08:08:14;96851.94;;;2.08;83.77
24160;BME280;62385;41.594;23.808;2023-12-28T08:10:39;96844.66;;;2.13;83.80
24160;BME280;62385;41.594;23.808;2023-12-28T08:13:05;96839.25;;;2.16;83.89
24160;BME280;62385;41.594;23.808;2023-12-28T08:15:30;96840.34;;;2.27;83.81
24160;BME280;62385;41.594;23.808;2023-12-28T08:17:56;96844.47;;;2.31;83.60
24160;BME280;62385;41.594;23.808;2023-12-28T08:20:21;96842.28;;;2.24;83.69
24160;BME280;62385;41.594;23.808;2023-12-28T08:22:47;96843.13;;;2.40;83.64
24160;BME280;62385;41.594;23.808;2023-12-28T08:25:13;96829.25;;;2.38;83.48
24160;BME280;62385;41.594;23.808;2023-12-28T08:27:38;96852.88;;;2.52;83.72
24160;BME280;62385;41.594;23.808;2023-12-28T08:30:05;96828.59;;;2.49;82.90
24160;BME280;62385;41.594;23.808;2023-12-28T08:32:31;96852.31;;;2.61;82.87
24160;BME280;62385;41.594;23.808;2023-12-28T08:34:57;96848.44;;;2.68;81.96
24160;BME280;62385;41.594;23.808;2023-12-28T08:37:22;96821.66;;;2.77;81.41
24160;BME280;62385;41.594;23.808;2023-12-28T08:39:48;96815.59;;;2.77;81.69
24160;BME280;62385;41.594;23.808;2023-12-28T08:42:13;96834.56;;;3.10;80.81
24160;BME280;62385;41.594;23.808;2023-12-28T08:44:39;96817.03;;;2.97;81.44
24160;BME280;62385;41.594;23.808;2023-12-28T08:47:05;96821.63;;;3.07;81.43
24160;BME280;62385;41.594;23.808;2023-12-28T08:49:30;96825.09;;;3.22;81.34
24160;BME280;62385;41.594;23.808;2023-12-28T08:51:56;96823.41;;;3.49;80.87
24160;BME280;62385;41.594;23.808;2023-12-28T08:54:21;96801.94;;;3.29;80.41
24160;BME280;62385;41.594;23.808;2023-12-28T08:56:47;96807.56;;;3.51;80.86
24160;BME280;62385;41.594;23.808;2023-12-28T08:59:13;96776.75;;;3.26;81.50
24160;BME280;62385;41.594;23.808;2023-12-28T09:01:39;96804.81;;;3.52;81.56
24160;BME280;62385;41.594;23.808;2023-12-28T09:04:04;96797.72;;;3.54;81.51
24160;BME280;62385;41.594;23.808;2023-12-28T09:06:30;96803.16;;;3.51;82.29
24160;BME280;62385;41.594;23.808;2023-12-28T09:08:55;96792.38;;;3.56;82.42
24160;BME280;62385;41.594;23.808;2023-12-28T09:11:22;96761.09;;;3.80;80.74
24160;BME280;62385;41.594;23.808;2023-12-28T09:13:47;96798.81;;;4.05;80.91
24160;BME280;62385;41.594;23.808;2023-12-28T09:16:13;96778.88;;;3.89;81.45
24160;BME280;62385;41.594;23.808;2023-12-28T09:18:40;96784.59;;;3.81;81.72
24160;BME280;62385;41.594;23.808;2023-12-28T09:21:08;96750.16;;;3.86;81.83
24160;BME280;62385;41.594;23.808;2023-12-28T09:23:35;96762.88;;;4.18;80.59
24160;BME280;62385;41.594;23.808;2023-12-28T09:26:04;96768.47;;;4.27;80.85
24160;BME280;62385;41.594;23.808;2023-12-28T09:28:31;96758.19;;;4.24;80.61
24160;BME280;62385;41.594;23.808;2023-12-28T09:30:57;96758.53;;;4.44;79.72
24160;BME280;62385;41.594;23.808;2023-12-28T09:33:22;96750.78;;;4.43;79.82
24160;BME280;62385;41.594;23.808;2023-12-28T09:35:48;96739.63;;;4.52;80.23
24160;BME280;62385;41.594;23.808;2023-12-28T09:38:14;96734.34;;;4.39;80.55
24160;BME280;62385;41.594;23.808;2023-12-28T09:40:43;96722.50;;;4.59;80.25
24160;BME280;62385;41.594;23.808;2023-12-28T09:43:26;96729.75;;;4.93;78.92
24160;BME280;62385;41.594;23.808;2023-12-28T09:45:55;96723.00;;;4.89;79.54
24160;BME280;62385;41.594;23.808;2023-12-28T09:48:21;96690.78;;;5.11;78.96
24160;BME280;62385;41.594;23.808;2023-12-28T09:50:50;96705.38;;;5.40;79.14
24160;BME280;62385;41.594;23.808;2023-12-28T09:53:16;96699.34;;;5.38;77.58
24160;BME280;62385;41.594;23.808;2023-12-28T09:55:43;96676.69;;;5.48;77.37
24160;BME280;62385;41.594;23.808;2023-12-28T09:58:09;96684.44;;;5.63;76.80
24160;BME280;62385;41.594;23.808;2023-12-28T10:00:35;96684.44;;;5.63;77.20
24160;BME280;62385;41.594;23.808;2023-12-28T10:03:01;96673.97;;;5.74;75.51
24160;BME280;62385;41.594;23.808;2023-12-28T10:05:28;96672.97;;;5.51;74.76
24160;BME280;62385;41.594;23.808;2023-12-28T10:07:55;96648.47;;;5.74;74.02
24160;BME280;62385;41.594;23.808;2023-12-28T10:10:21;96668.88;;;6.07;72.58
24160;BME280;62385;41.594;23.808;2023-12-28T10:12:47;96656.38;;;5.98;73.05
24160;BME280;62385;41.594;23.808;2023-12-28T10:15:13;96659.78;;;6.11;71.97
24160;BME280;62385;41.594;23.808;2023-12-28T10:17:38;96634.81;;;5.56;71.24
24160;BME280;62385;41.594;23.808;2023-12-28T10:20:06;96647.44;;;6.12;70.91
24160;BME280;62385;41.594;23.808;2023-12-28T10:22:35;96647.63;;;5.97;71.92
24160;BME280;62385;41.594;23.808;2023-12-28T10:25:02;96632.75;;;6.42;71.31
24160;BME280;62385;41.594;23.808;2023-12-28T10:27:28;96622.84;;;6.00;72.16
24160;BME280;62385;41.594;23.808;2023-12-28T10:29:55;96624.56;;;6.23;71.74
24160;BME280;62385;41.594;23.808;2023-12-28T10:32:22;96607.72;;;6.37;71.96
24160;BME280;62385;41.594;23.808;2023-12-28T10:34:51;96606.50;;;6.52;70.73
24160;BME280;62385;41.594;23.808;2023-12-28T10:37:19;96606.06;;;6.69;70.31
24160;BME280;62385;41.594;23.808;2023-12-28T10:39:47;96586.13;;;6.87;68.27
24160;BME280;62385;41.594;23.808;2023-12-28T10:42:20;96582.78;;;6.85;68.78
24160;BME280;62385;41.594;23.808;2023-12-28T10:44:50;96586.00;;;6.89;68.57
24160;BME280;62385;41.594;23.808;2023-12-28T10:47:22;96584.34;;;6.77;67.29
24160;BME280;62385;41.594;23.808;2023-12-28T10:49:52;96571.25;;;6.86;67.78
24160;BME280;62385;41.594;23.808;2023-12-28T10:52:21;96574.47;;;7.01;68.62
24160;BME280;62385;41.594;23.808;2023-12-28T10:55:05;96566.81;;;6.87;68.23
24160;BME280;62385;41.594;23.808;2023-12-28T11:07:25;96545.03;;;7.17;69.09
24160;BME280;62385;41.594;23.808;2023-12-28T11:10:00;96540.47;;;7.19;67.23
24160;BME280;62385;41.594;23.808;2023-12-28T11:12:27;96545.44;;;7.44;67.55
24160;BME280;62385;41.594;23.808;2023-12-28T11:14:53;96525.28;;;7.64;66.54
24160;BME280;62385;41.594;23.808;2023-12-28T11:17:20;96534.25;;;7.72;66.47
24160;BME280;62385;41.594;23.808;2023-12-28T11:19:46;96528.13;;;7.72;64.94
24160;BME280;62385;41.594;23.808;2023-12-28T11:22:13;96502.44;;;7.74;64.79
24160;BME280;62385;41.594;23.808;2023-12-28T11:24:39;96492.91;;;8.13;63.81
24160;BME280;62385;41.594;23.808;2023-12-28T11:27:04;96508.97;;;8.21;65.45
24160;BME280;62385;41.594;23.808;2023-12-28T11:29:31;96458.75;;;7.79;64.89
24160;BME280;62385;41.594;23.808;2023-12-28T11:31:58;96506.97;;;8.13;65.57
24160;BME280;62385;41.594;23.808;2023-12-28T11:34:33;96475.88;;;8.26;65.67
24160;BME280;62385;41.594;23.808;2023-12-28T11:37:06;96486.25;;;8.39;64.83
24160;BME280;62385;41.594;23.808;2023-12-28T11:39:33;96464.66;;;8.34;64.48
24160;BME280;62385;41.594;23.808;2023-12-28T11:42:03;96474.72;;;8.40;67.17
24160;BME280;62385;41.594;23.808;2023-12-28T11:44:53;96482.16;;;8.56;64.75
24160;BME280;62385;41.594;23.808;2023-12-28T11:47:24;96473.72;;;8.81;62.90
24160;BME280;62385;41.594;23.808;2023-12-28T11:49:50;96491.69;;;8.87;66.78
24160;BME280;62385;41.594;23.808;2023-12-28T11:54:52;96481.78;;;8.79;62.93
24160;BME280;62385;41.594;23.808;2023-12-28T11:57:17;96471.09;;;9.00;61.98
24160;BME280;62385;41.594;23.808;2023-12-28T11:59:43;96470.00;;;9.12;62.96
24160;BME280;62385;41.594;23.808;2023-12-28T12:02:09;96459.66;;;9.00;63.45
24160;BME280;62385;41.594;23.808;2023-12-28T12:04:36;96479.34;;;9.07;65.40
24160;BME280;62385;41.594;23.808;2023-12-28T12:07:02;96474.50;;;9.31;64.88
24160;BME280;62385;41.594;23.808;2023-12-28T12:09:31;96471.16;;;9.39;64.84
24160;BME280;62385;41.594;23.808;2023-12-28T12:12:03;96468.66;;;9.27;61.23
24160;BME280;62385;41.594;23.808;2023-12-28T12:14:30;96457.88;;;9.48;62.22
24160;BME280;62385;41.594;23.808;2023-12-28T12:16:58;96460.53;;;9.39;60.76
24160;BME280;62385;41.594;23.808;2023-12-28T12:19:25;96433.59;;;9.53;60.17
24160;BME280;62385;41.594;23.808;2023-12-28T12:21:57;96434.88;;;9.39;61.60
24160;BME280;62385;41.594;23.808;2023-12-28T12:24:23;96441.03;;;9.30;60.71
24160;BME280;62385;41.594;23.808;2023-12-28T12:26:51;96431.50;;;9.66;58.68
24160;BME280;62385;41.594;23.808;2023-12-28T12:29:17;96429.56;;;9.68;59.51
24160;BME280;62385;41.594;23.808;2023-12-28T12:31:45;96423.22;;;9.88;57.99
24160;BME280;62385;41.594;23.808;2023-12-28T12:34:13;96413.03;;;9.93;57.98
24160;BME280;62385;41.594;23.808;2023-12-28T12:36:40;96425.22;;;9.67;58.67
24160;BME280;62385;41.594;23.808;2023-12-28T12:39:06;96423.09;;;9.80;59.50
24160;BME280;62385;41.594;23.808;2023-12-28T12:41:33;96422.63;;;10.04;57.65
24160;BME280;62385;41.594;23.808;2023-12-28T12:43:59;96425.25;;;10.13;60.15
24160;BME280;62385;41.594;23.808;2023-12-28T12:46:25;96426.09;;;10.14;58.40
24160;BME280;62385;41.594;23.808;2023-12-28T12:48:55;96412.22;;;9.83;57.38
24160;BME280;62385;41.594;23.808;2023-12-28T12:51:21;96411.06;;;9.95;56.69
24160;BME280;62385;41.594;23.808;2023-12-28T12:53:47;96422.56;;;10.23;55.89
24160;BME280;62385;41.594;23.808;2023-12-28T12:56:13;96401.63;;;10.20;57.54
24160;BME280;62385;41.594;23.808;2023-12-28T12:58:39;96421.88;;;10.31;56.33
24160;BME280;62385;41.594;23.808;2023-12-28T13:01:04;96389.44;;;10.27;56.89
24160;BME280;62385;41.594;23.808;2023-12-28T13:03:30;96389.00;;;10.32;56.65
24160;BME280;62385;41.594;23.808;2023-12-28T13:05:56;96402.38;;;10.40;57.02
24160;BME280;62385;41.594;23.808;2023-12-28T13:08:22;96391.44;;;10.25;55.46
24160;BME280;62385;41.594;23.808;2023-12-28T13:10:48;96404.25;;;10.30;57.20